createdAt,value
2019-05-18T00:02:41.577Z,99.99
2019-05-18T00:03:41.495Z,99.99
2019-05-18T00:04:41.417Z,99.99
2019-05-18T00:05:41.341Z,99.99
2019-05-18T00:06:41.264Z,99.99
2019-05-18T00:07:41.388Z,99.99
2019-05-18T00:08:41.110Z,99.99
2019-05-18T00:09:41.035Z,99.99
2019-05-18T00:10:40.957Z,99.99
2019-05-18T00:11:40.879Z,99.99
2019-05-18T00:12:40.811Z,99.99
2019-05-18T00:13:40.726Z,99.99
2019-05-18T00:16:28.060Z,99.99
2019-05-18T00:17:27.981Z,99.99
2019-05-18T00:18:27.904Z,99.99
2019-05-18T00:19:27.830Z,99.99
2019-05-18T00:21:27.674Z,99.99
2019-05-18T00:24:27.442Z,99.99
2019-05-18T00:25:27.370Z,99.99
2019-05-18T00:26:27.289Z,99.99
2019-05-18T00:27:27.212Z,99.99
2019-05-18T00:28:27.134Z,99.99
2019-05-18T00:29:27.057Z,99.99
2019-05-18T03:27:36.766Z,99.99
2019-05-18T03:28:36.669Z,99.99
2019-05-18T03:29:36.595Z,99.99
2019-05-18T03:30:36.514Z,99.99
2019-05-18T03:31:36.513Z,99.99
2019-05-18T03:32:36.463Z,99.99
2019-05-18T03:33:36.286Z,99.99
2019-05-18T03:34:36.210Z,99.99
2019-05-18T03:35:36.149Z,99.99
2019-05-18T03:36:36.058Z,99.99
2019-05-18T03:37:35.982Z,99.99
2019-05-18T03:38:35.906Z,99.99
2019-05-18T03:39:35.832Z,99.99
2019-05-18T03:40:35.756Z,99.99
2019-05-18T03:41:35.676Z,99.99
2019-05-18T03:42:35.604Z,99.99
2019-05-18T03:43:35.521Z,99.99
2019-05-18T03:44:35.447Z,99.99
2019-05-18T03:45:35.369Z,99.99
2019-05-18T03:46:35.293Z,99.99
2019-05-18T03:47:35.217Z,99.99
2019-05-18T03:48:35.240Z,99.99
2019-05-18T03:49:35.208Z,99.99
2019-05-18T03:50:34.987Z,99.99
2019-05-18T03:51:34.921Z,99.99
2019-05-18T03:52:35.168Z,99.99
2019-05-18T03:53:34.759Z,99.99
2019-05-18T03:54:34.682Z,99.99
2019-05-18T03:55:34.606Z,99.99
2019-05-18T03:56:34.529Z,99.99
2019-05-18T03:57:34.453Z,99.99
2019-05-18T03:58:34.388Z,99.99
2019-05-18T03:59:34.316Z,99.99
2019-05-18T04:00:34.228Z,99.99
2019-05-18T04:01:34.148Z,99.99
2019-05-18T04:02:34.071Z,99.99
2019-05-18T04:03:33.994Z,99.99
2019-05-18T04:04:33.920Z,99.99
2019-05-18T04:05:33.844Z,99.99
2019-05-18T04:06:33.765Z,99.99
2019-05-18T04:07:33.690Z,99.99
2019-05-18T04:08:33.714Z,99.99
2019-05-18T04:09:33.539Z,99.99
2019-05-18T04:10:33.460Z,99.99
2019-05-18T04:11:33.397Z,99.99
2019-05-18T04:12:33.310Z,99.99
2019-05-18T04:13:33.234Z,99.99
2019-05-18T04:14:33.156Z,99.99
2019-05-18T04:15:33.087Z,99.99
2019-05-18T04:16:33.003Z,99.99
2019-05-18T04:18:32.850Z,99.99
2019-05-18T04:19:45.499Z,99.99
2019-05-18T04:20:32.699Z,99.99
2019-05-18T04:21:32.622Z,99.99
2019-05-18T04:22:32.548Z,99.99
2019-05-18T04:23:32.469Z,99.99
2019-05-18T04:24:32.396Z,99.99
2019-05-18T04:25:32.519Z,99.99
2019-05-18T04:26:32.242Z,99.99
2019-05-18T04:27:32.170Z,99.99
2019-05-18T04:28:32.091Z,99.99
2019-05-18T04:29:32.013Z,99.99
2019-05-18T04:30:31.937Z,99.99
2019-05-18T04:31:32.500Z,99.99
2019-05-18T04:32:31.786Z,99.99
2019-05-18T04:33:31.708Z,99.99
2019-05-18T04:35:31.655Z,99.99
2019-05-18T04:36:31.494Z,99.99
2019-05-18T04:37:31.406Z,99.99
2019-05-18T04:38:31.338Z,99.99
2019-05-18T04:39:31.257Z,99.99
2019-05-18T04:48:31.006Z,99.99
2019-05-18T04:49:31.206Z,99.99
2019-05-18T05:14:32.368Z,99.99
2019-05-18T05:15:32.294Z,99.99
2019-05-18T05:16:32.218Z,99.99
2019-05-18T05:17:32.141Z,99.99
2019-05-18T05:18:32.067Z,99.99
2019-05-18T05:19:31.992Z,99.99
2019-05-18T05:20:31.921Z,99.99
2019-05-18T05:21:31.842Z,99.99
2019-05-18T05:22:31.766Z,99.99
2019-05-18T05:23:31.690Z,99.99
2019-05-18T05:24:31.616Z,99.99
2019-05-18T05:25:31.541Z,99.99
2019-05-18T05:26:31.468Z,99.99
2019-05-18T05:27:31.795Z,99.99
2019-05-18T05:28:31.316Z,99.99
2019-05-18T05:29:32.454Z,99.99
2019-05-18T05:30:31.165Z,99.99
2019-05-18T05:31:31.095Z,99.99
2019-05-18T05:32:31.021Z,99.99
2019-05-18T05:33:30.941Z,99.99
2019-05-18T05:34:30.867Z,99.99
2019-05-18T05:35:30.793Z,99.99
2019-05-18T05:36:30.745Z,99.99
2019-05-18T05:37:30.643Z,99.99
2019-05-18T05:38:30.569Z,99.99
2019-05-18T05:39:30.495Z,99.99
2019-05-18T05:40:30.419Z,99.99
2019-05-18T05:41:30.344Z,99.99
2019-05-18T05:42:30.269Z,99.99
2019-05-18T05:43:30.195Z,99.99
2019-05-18T05:44:30.121Z,99.99
2019-05-18T05:45:30.046Z,99.99
2019-05-18T05:46:29.971Z,99.99
2019-05-18T05:47:29.898Z,99.99
2019-05-18T05:48:29.824Z,99.99
2019-05-18T05:49:29.749Z,99.99
2019-05-18T05:50:36.095Z,99.99
2019-05-18T05:51:29.600Z,99.99
2019-05-18T05:52:29.526Z,99.99
2019-05-18T05:53:29.449Z,99.99
2019-05-18T05:54:29.377Z,99.99
2019-05-18T05:55:29.301Z,99.99
2019-05-18T05:56:29.236Z,99.99
2019-05-18T05:57:29.152Z,99.99
2019-05-18T05:58:29.080Z,99.99
2019-05-18T05:59:29.003Z,99.99
2019-05-18T06:00:28.929Z,99.99
2019-05-18T06:01:28.871Z,99.99
2019-05-18T06:02:28.783Z,99.99
2019-05-18T06:03:28.765Z,99.99
2019-05-18T06:04:28.636Z,99.99
2019-05-18T06:05:28.558Z,99.99
2019-05-18T06:06:28.484Z,99.99
2019-05-18T06:07:28.407Z,99.99
2019-05-18T06:08:28.334Z,99.99
2019-05-18T06:09:28.259Z,99.99
2019-05-18T06:10:28.186Z,99.99
2019-05-18T06:11:28.109Z,99.99
2019-05-18T06:12:28.037Z,99.99
2019-05-18T06:13:27.960Z,99.99
2019-05-18T06:15:15.375Z,99.99
2019-05-18T06:16:15.301Z,99.99
2019-05-18T06:17:15.326Z,99.99
2019-05-18T06:18:15.150Z,99.99
2019-05-18T06:19:15.077Z,99.99
2019-05-18T06:20:15.002Z,99.99
2019-05-18T06:21:14.927Z,99.99
2019-05-18T06:22:14.855Z,99.99
2019-05-18T06:27:23.690Z,99.99
2019-05-18T06:28:23.517Z,99.99
2019-05-18T06:29:23.442Z,99.99
2019-05-18T06:30:23.412Z,99.99
2019-05-18T06:31:23.406Z,99.99
2019-05-18T06:32:23.222Z,99.99
2019-05-18T06:33:23.149Z,99.99
2019-05-18T06:34:23.073Z,99.99
2019-05-18T06:35:23.000Z,99.99
2019-05-18T06:36:22.927Z,99.99
2019-05-18T06:37:22.853Z,99.99
2019-05-18T06:38:22.779Z,99.99
2019-05-18T06:39:22.706Z,99.99
2019-05-18T06:40:22.632Z,99.99
2019-05-18T06:41:22.558Z,99.99
2019-05-18T06:42:22.487Z,99.99
2019-05-18T06:43:22.411Z,99.99
2019-05-18T06:44:22.337Z,99.99
2019-05-18T06:45:22.268Z,99.99
2019-05-18T06:46:22.193Z,99.99
2019-05-18T06:47:22.119Z,99.38
2019-05-18T06:48:22.147Z,99.99
2019-05-18T06:49:21.974Z,99.10
2019-05-18T06:50:21.900Z,99.63
2019-05-18T06:51:21.828Z,98.91
2019-05-18T06:52:21.754Z,99.48
2019-05-18T06:53:23.418Z,98.76
2019-05-18T06:54:21.607Z,99.05
2019-05-18T06:55:21.539Z,98.86
2019-05-18T06:56:21.472Z,99.43
2019-05-18T06:57:21.397Z,98.76
2019-05-18T06:58:23.937Z,98.76
2019-05-18T06:59:21.448Z,98.86
2019-05-18T07:00:21.172Z,98.67
2019-05-18T07:01:21.112Z,97.90
2019-05-18T07:02:21.025Z,98.57
2019-05-18T07:03:20.952Z,99.53
2019-05-18T07:04:20.885Z,99.05
2019-05-18T07:05:20.806Z,99.05
2019-05-18T07:06:20.771Z,98.96
2019-05-18T07:08:20.588Z,99.48
2019-05-18T07:09:20.514Z,99.00
2019-05-18T07:10:20.441Z,99.99
2019-05-18T07:11:20.378Z,99.99
2019-05-18T07:12:20.295Z,99.99
2019-05-18T07:13:20.236Z,99.87
2019-05-18T07:14:25.746Z,99.99
2019-05-18T07:15:20.077Z,99.87
2019-05-18T07:16:20.004Z,99.99
2019-05-18T07:17:19.930Z,99.99
2019-05-18T07:18:19.857Z,99.99
2019-05-18T07:19:19.783Z,99.99
2019-05-18T07:20:19.810Z,99.99
2019-05-18T07:21:22.453Z,99.99
2019-05-18T07:22:19.564Z,99.53
2019-05-18T07:23:19.491Z,99.91
2019-05-18T07:24:19.417Z,99.99
2019-05-18T07:25:19.345Z,99.99
2019-05-18T07:26:19.271Z,99.99
2019-05-18T07:27:19.197Z,99.99
2019-05-18T07:28:19.126Z,99.99
2019-05-18T07:29:19.054Z,99.99
2019-05-18T07:30:18.980Z,99.99
2019-05-18T07:31:18.907Z,99.99
2019-05-18T07:32:18.833Z,99.99
2019-05-18T07:33:18.760Z,99.99
2019-05-18T07:34:18.689Z,99.99
2019-05-18T07:35:18.613Z,99.99
2019-05-18T07:36:18.541Z,99.99
2019-05-18T07:37:18.468Z,99.99
2019-05-18T07:39:00.882Z,99.99
2019-05-18T07:40:00.809Z,99.99
2019-05-18T07:41:00.744Z,99.99
2019-05-18T07:42:00.662Z,99.99
2019-05-18T07:43:00.590Z,99.99
2019-05-18T07:44:00.520Z,99.99
2019-05-18T07:45:00.446Z,99.99
2019-05-18T07:46:00.371Z,99.99
2019-05-18T07:47:00.299Z,99.99
2019-05-18T07:48:00.279Z,99.99
2019-05-18T07:49:00.154Z,99.99
2019-05-18T07:50:00.082Z,99.99
2019-05-18T07:51:00.010Z,99.99
2019-05-18T07:51:59.937Z,99.68
2019-05-18T07:52:59.865Z,99.99
2019-05-18T07:53:59.792Z,99.99
2019-05-18T07:54:59.720Z,99.99
2019-05-18T07:56:42.139Z,99.99
2019-05-18T07:57:42.063Z,99.99
2019-05-18T07:58:41.992Z,99.99
2019-05-18T07:59:41.920Z,99.99
2019-05-18T08:00:41.847Z,99.99
2019-05-18T08:01:41.775Z,99.99
2019-05-18T08:02:41.705Z,98.91
2019-05-18T08:03:41.634Z,97.56
2019-05-18T08:04:41.560Z,97.81
2019-05-18T08:05:41.488Z,97.14
2019-05-18T08:06:41.426Z,97.38
2019-05-18T08:07:41.345Z,97.38
2019-05-18T08:08:41.273Z,97.38
2019-05-18T08:09:41.204Z,96.94
2019-05-18T08:10:43.622Z,96.56
2019-05-18T08:11:41.058Z,96.03
2019-05-18T08:12:40.986Z,94.49
2019-05-18T08:13:40.915Z,94.78
2019-05-18T08:14:40.845Z,95.75
2019-05-18T08:15:40.772Z,95.94
2019-05-18T08:16:40.700Z,94.31
2019-05-18T08:17:40.630Z,93.25
2019-05-18T08:18:40.560Z,93.54
2019-05-18T08:19:40.488Z,94.88
2019-05-18T08:20:40.423Z,96.37
2019-05-18T08:21:52.324Z,93.59
2019-05-18T08:22:40.276Z,94.35
2019-05-18T08:23:40.248Z,96.22
2019-05-18T08:24:40.133Z,91.04
2019-05-18T08:25:40.064Z,93.15
2019-05-18T08:26:39.994Z,90.17
2019-05-18T08:27:39.926Z,87.19
2019-05-18T08:28:39.851Z,87.49
2019-05-18T08:29:39.780Z,87.77
2019-05-18T08:30:39.710Z,89.45
2019-05-18T08:31:39.666Z,90.03
2019-05-18T08:32:39.572Z,89.45
2019-05-18T08:33:39.529Z,89.07
2019-05-18T08:34:39.427Z,91.95
2019-05-18T08:35:39.355Z,90.12
2019-05-18T08:36:39.288Z,88.30
2019-05-18T08:37:39.218Z,85.51
2019-05-18T08:38:39.148Z,87.62
2019-05-18T08:39:39.073Z,84.64
2019-05-18T08:40:39.003Z,85.51
2019-05-18T08:41:38.932Z,86.05
2019-05-18T08:42:38.862Z,90.46
2019-05-18T08:43:38.790Z,88.25
2019-05-18T08:44:38.720Z,87.10
2019-05-18T08:45:38.678Z,87.10
2019-05-18T08:46:38.579Z,87.58
2019-05-18T08:47:38.507Z,87.77
2019-05-18T08:48:38.438Z,90.08
2019-05-18T08:49:38.366Z,86.14
2019-05-18T08:50:38.298Z,88.16
2019-05-18T08:51:38.223Z,90.80
2019-05-18T08:52:38.156Z,91.18
2019-05-18T08:53:38.082Z,90.31
2019-05-18T08:54:38.012Z,91.56
2019-05-18T08:55:37.941Z,87.15
2019-05-18T08:56:37.871Z,85.47
2019-05-18T08:57:37.806Z,85.03
2019-05-18T08:58:37.729Z,87.62
2019-05-18T08:59:39.932Z,86.28
2019-05-18T09:00:37.588Z,83.97
2019-05-18T09:01:37.520Z,84.64
2019-05-18T09:02:37.450Z,87.09
2019-05-18T09:03:37.376Z,85.65
2019-05-18T09:04:40.330Z,85.17
2019-05-18T09:05:37.235Z,85.17
2019-05-18T09:06:37.172Z,85.07
2019-05-18T09:07:37.104Z,84.88
2019-05-18T09:08:37.031Z,86.61
2019-05-18T09:09:36.956Z,88.06
2019-05-18T09:10:36.884Z,86.80
2019-05-18T09:11:36.813Z,86.85
2019-05-18T09:12:36.743Z,85.88
2019-05-18T09:13:36.673Z,81.84
2019-05-18T09:14:36.603Z,82.52
2019-05-18T09:15:36.531Z,79.60
2019-05-18T09:16:36.462Z,79.30
2019-05-18T09:17:36.401Z,80.75
2019-05-18T09:18:36.322Z,82.90
2019-05-18T09:19:36.351Z,85.11
2019-05-18T09:20:36.195Z,87.71
2019-05-18T09:21:36.112Z,84.34
2019-05-18T09:22:36.040Z,81.84
2019-05-18T09:23:36.000Z,84.73
2019-05-18T09:24:35.907Z,83.81
2019-05-18T09:25:35.832Z,82.65
2019-05-18T09:26:35.762Z,80.35
2019-05-18T09:27:35.692Z,81.12
2019-05-18T09:28:35.621Z,83.23
2019-05-18T09:29:35.553Z,80.73
2019-05-18T09:30:35.484Z,80.44
2019-05-18T09:31:35.415Z,79.28
2019-05-18T09:32:35.343Z,78.33
2019-05-18T09:33:35.276Z,77.33
2019-05-18T09:34:35.206Z,79.63
2019-05-18T09:35:35.135Z,79.73
2019-05-18T09:36:35.063Z,80.88
2019-05-18T09:37:34.993Z,79.96
2019-05-18T09:38:34.927Z,78.00
2019-05-18T09:39:34.853Z,79.19
2019-05-18T09:40:34.784Z,78.52
2019-05-18T09:41:34.714Z,77.13
2019-05-18T09:42:34.643Z,75.69
2019-05-18T09:43:34.573Z,75.79
2019-05-18T09:44:34.506Z,76.59
2019-05-18T09:45:34.435Z,76.36
2019-05-18T09:46:34.364Z,77.04
2019-05-18T09:47:34.295Z,77.71
2019-05-18T09:48:34.277Z,79.67
2019-05-18T09:49:34.152Z,78.28
2019-05-18T09:50:34.083Z,77.08
2019-05-18T09:51:34.011Z,77.71
2019-05-18T09:52:44.970Z,79.82
2019-05-18T09:53:33.870Z,80.69
2019-05-18T09:54:33.800Z,83.58
2019-05-18T09:56:41.236Z,78.33
2019-05-18T09:57:41.168Z,78.23
2019-05-18T09:58:41.096Z,77.17
2019-05-18T09:59:41.023Z,77.26
2019-05-18T10:00:40.954Z,78.13
2019-05-18T10:01:40.940Z,77.84
2019-05-18T10:02:40.813Z,78.52
2019-05-18T10:03:40.740Z,76.98
2019-05-18T10:04:40.672Z,77.17
2019-05-18T10:05:40.602Z,77.17
2019-05-18T10:06:40.529Z,77.56
2019-05-18T10:07:40.459Z,78.03
2019-05-18T10:08:40.388Z,77.42
2019-05-18T10:09:40.318Z,79.15
2019-05-18T10:10:40.247Z,79.35
2019-05-18T10:11:40.179Z,78.23
2019-05-18T10:12:40.105Z,79.38
2019-05-18T10:13:40.035Z,76.40
2019-05-18T10:14:39.964Z,79.77
2019-05-18T10:15:39.894Z,77.46
2019-05-18T10:16:39.824Z,76.59
2019-05-18T10:17:39.752Z,77.59
2019-05-18T10:18:39.690Z,77.01
2019-05-18T10:19:39.610Z,80.87
2019-05-18T10:20:39.541Z,84.38
2019-05-18T10:21:39.471Z,78.50
2019-05-18T10:22:53.436Z,77.34
2019-05-18T10:23:40.553Z,73.68
2019-05-18T10:24:39.318Z,72.24
2019-05-18T10:25:39.188Z,70.60
2019-05-18T10:26:39.119Z,70.86
2019-05-18T10:27:39.050Z,73.99
2019-05-18T10:28:38.977Z,74.86
2019-05-18T10:29:38.907Z,76.06
2019-05-18T10:30:38.837Z,77.98
2019-05-18T10:31:38.767Z,75.76
2019-05-18T10:32:38.699Z,74.45
2019-05-18T10:33:38.627Z,75.90
2019-05-18T10:34:38.559Z,73.88
2019-05-18T10:35:38.485Z,74.13
2019-05-18T10:36:38.417Z,76.06
2019-05-18T10:37:38.344Z,75.86
2019-05-18T10:38:38.276Z,74.90
2019-05-18T10:39:38.902Z,75.19
2019-05-18T10:40:38.133Z,76.57
2019-05-18T10:41:38.064Z,77.34
2019-05-18T10:42:37.995Z,76.09
2019-05-18T10:43:37.922Z,75.16
2019-05-18T10:44:37.853Z,74.97
2019-05-18T10:45:37.782Z,76.13
2019-05-18T10:46:37.711Z,75.74
2019-05-18T10:47:37.643Z,73.85
2019-05-18T10:48:37.571Z,73.62
2019-05-18T10:49:37.501Z,72.56
2019-05-18T10:50:37.433Z,73.91
2019-05-18T10:51:37.361Z,73.62
2019-05-18T10:52:37.301Z,76.51
2019-05-18T10:53:37.222Z,76.32
2019-05-18T10:54:37.171Z,75.84
2019-05-18T10:55:37.083Z,76.71
2019-05-18T10:56:37.013Z,74.01
2019-05-18T10:57:36.944Z,76.55
2019-05-18T10:58:36.876Z,72.50
2019-05-18T10:59:40.436Z,69.71
2019-05-18T11:00:36.737Z,69.29
2019-05-18T11:01:36.669Z,70.86
2019-05-18T11:02:36.617Z,70.28
2019-05-18T11:03:36.528Z,70.76
2019-05-18T11:04:36.487Z,70.09
2019-05-18T11:05:36.390Z,69.23
2019-05-18T11:06:36.326Z,68.97
2019-05-18T11:07:36.252Z,69.64
2019-05-18T11:10:36.048Z,71.90
2019-05-18T11:11:36.183Z,70.45
2019-05-18T11:12:35.911Z,67.69
2019-05-18T11:14:33.526Z,68.46
2019-05-18T11:15:33.464Z,66.24
2019-05-18T11:16:33.389Z,66.49
2019-05-18T11:17:33.321Z,69.23
2019-05-18T11:23:51.394Z,69.13
2019-05-18T11:24:51.328Z,69.35
2019-05-18T11:27:13.783Z,66.36
2019-05-18T11:28:13.707Z,66.27
2019-05-18T11:29:13.639Z,66.85
2019-05-18T11:30:13.570Z,66.27
2019-05-18T11:31:13.501Z,66.11
2019-05-18T11:32:55.924Z,67.55
2019-05-18T11:33:55.856Z,67.75
2019-05-18T11:34:55.806Z,66.46
2019-05-18T11:35:55.717Z,65.34
2019-05-18T11:36:55.651Z,64.69
2019-05-18T11:37:55.583Z,64.92
2019-05-18T11:38:55.512Z,64.95
2019-05-18T11:39:55.444Z,64.01
2019-05-18T11:40:55.375Z,64.43
2019-05-18T11:42:55.238Z,61.08
2019-05-18T11:43:55.171Z,60.62
2019-05-18T11:44:55.103Z,62.07
2019-05-18T11:45:55.035Z,62.98
2019-05-18T11:48:42.429Z,56.40
2019-05-18T11:49:42.330Z,56.40
2019-05-18T11:50:42.262Z,57.47
2019-05-18T11:51:42.201Z,56.82
2019-05-18T11:52:42.133Z,54.27
2019-05-18T11:53:42.071Z,53.97
2019-05-18T11:54:43.420Z,53.66
2019-05-18T11:55:41.942Z,52.72
2019-05-18T11:56:41.886Z,54.07
2019-05-18T11:57:41.841Z,54.68
2019-05-18T11:58:41.755Z,52.94
2019-05-18T11:59:41.691Z,52.62
2019-05-18T12:00:41.629Z,54.82
2019-05-18T12:01:41.565Z,55.41
2019-05-18T12:02:41.505Z,55.82
2019-05-18T12:03:41.442Z,53.08
2019-05-18T12:04:41.384Z,55.53
2019-05-18T12:05:41.319Z,54.90
2019-05-18T12:07:23.753Z,51.21
2019-05-18T12:08:23.700Z,50.34
2019-05-18T12:09:23.640Z,50.80
2019-05-18T12:10:23.571Z,52.57
2019-05-18T12:11:26.598Z,52.89
2019-05-18T12:12:23.450Z,50.95
2019-05-18T12:13:23.392Z,50.95
2019-05-18T12:14:23.738Z,49.63
2019-05-18T12:15:23.273Z,49.90
2019-05-18T12:16:23.212Z,52.03
2019-05-18T12:17:23.160Z,51.70
2019-05-18T12:19:25.870Z,53.39
2019-05-18T12:20:25.808Z,56.75
2019-05-18T12:21:25.754Z,57.59
2019-05-18T12:22:25.687Z,59.23
2019-05-18T12:23:25.625Z,57.53
2019-05-18T12:24:25.564Z,58.92
2019-05-18T12:25:25.503Z,59.89
2019-05-18T12:26:25.449Z,58.04
2019-05-18T12:27:25.380Z,57.41
2019-05-18T12:28:25.317Z,59.22
2019-05-18T12:29:25.325Z,60.93
2019-05-18T12:30:25.226Z,60.11
2019-05-18T12:31:25.123Z,58.47
2019-05-18T12:32:25.059Z,55.42
2019-05-18T12:33:24.994Z,55.32
2019-05-18T12:34:24.930Z,55.88
2019-05-18T12:35:24.865Z,57.89
2019-05-18T12:36:24.805Z,59.70
2019-05-18T12:37:24.738Z,60.67
2019-05-18T12:39:27.226Z,63.15
2019-05-18T12:40:24.542Z,62.44
2019-05-18T12:42:16.976Z,63.31
2019-05-18T12:43:16.910Z,65.24
2019-05-18T12:44:16.844Z,64.47
2019-05-18T12:45:16.782Z,63.76
2019-05-18T12:46:16.714Z,65.30
2019-05-18T12:47:16.645Z,64.82
2019-05-18T12:48:16.584Z,65.30
2019-05-18T12:49:16.532Z,65.40
2019-05-18T12:50:16.445Z,65.91
2019-05-18T12:51:16.378Z,65.85
2019-05-18T12:52:16.313Z,65.27
2019-05-18T12:53:17.746Z,64.66
2019-05-18T12:54:28.668Z,64.28
2019-05-18T12:55:16.110Z,65.59
2019-05-18T12:56:16.052Z,65.50
2019-05-18T12:57:15.977Z,63.76
2019-05-18T12:58:15.907Z,63.37
2019-05-18T12:59:15.841Z,64.72
2019-05-18T13:00:15.794Z,66.17
2019-05-18T13:01:15.707Z,67.10
2019-05-18T13:02:15.638Z,64.50
2019-05-18T13:03:15.570Z,64.40
2019-05-18T13:04:15.503Z,67.68
2019-05-18T13:05:15.434Z,70.92
2019-05-18T13:06:15.368Z,72.95
2019-05-18T13:07:15.302Z,73.82
2019-05-18T13:08:15.230Z,76.86
2019-05-18T13:11:50.835Z,79.71
2019-05-18T13:12:50.766Z,78.75
2019-05-18T13:13:50.695Z,79.67
2019-05-18T13:14:50.626Z,81.12
2019-05-18T13:15:50.555Z,83.42
2019-05-18T13:16:50.486Z,86.69
2019-05-18T13:17:50.416Z,85.25
2019-05-18T13:18:50.348Z,83.72
2019-05-18T13:19:50.280Z,83.23
2019-05-18T13:20:50.239Z,83.23
2019-05-18T13:27:49.746Z,85.88
2019-05-18T13:28:49.652Z,87.76
2019-05-18T13:30:42.074Z,89.01
2019-05-18T13:31:42.005Z,87.27
2019-05-18T13:32:41.937Z,87.37
2019-05-18T13:33:41.865Z,86.31
2019-05-18T13:34:41.794Z,87.46
2019-05-18T13:35:45.253Z,84.77
2019-05-18T13:36:41.657Z,85.93
2019-05-18T13:37:41.586Z,88.04
2019-05-18T13:38:41.515Z,86.60
2019-05-18T13:39:41.447Z,86.51
2019-05-18T13:40:41.377Z,85.64
2019-05-18T13:41:41.320Z,85.44
2019-05-18T13:42:41.305Z,86.41
2019-05-18T13:43:41.168Z,87.66
2019-05-18T13:44:41.096Z,87.18
2019-05-18T13:45:41.068Z,87.85
2019-05-18T13:46:40.961Z,86.79
2019-05-18T13:47:40.889Z,87.46
2019-05-18T13:48:40.816Z,84.77
2019-05-18T13:49:40.748Z,86.69
2019-05-18T13:50:40.677Z,87.95
2019-05-18T13:51:40.608Z,87.85
2019-05-18T13:52:40.540Z,89.68
2019-05-18T13:53:40.466Z,86.51
2019-05-18T13:54:40.397Z,86.26
2019-05-18T13:56:40.260Z,85.00
2019-05-18T13:57:40.192Z,84.43
2019-05-18T13:58:40.122Z,82.02
2019-05-18T13:59:40.050Z,82.12
2019-05-18T14:00:39.979Z,85.00
2019-05-18T14:01:39.911Z,80.68
2019-05-18T14:02:39.840Z,80.29
2019-05-18T14:03:39.772Z,82.26
2019-05-18T14:04:39.701Z,80.33
2019-05-18T14:05:39.632Z,81.10
2019-05-18T14:06:39.562Z,82.29
2019-05-18T14:07:39.496Z,82.20
2019-05-18T14:08:39.509Z,79.74
2019-05-18T14:09:39.357Z,79.93
2019-05-18T14:10:39.333Z,78.67
2019-05-18T14:11:39.218Z,76.78
2019-05-18T14:12:39.151Z,77.36
2019-05-18T14:13:39.082Z,76.84
2019-05-18T14:14:39.014Z,75.93
2019-05-18T14:15:38.944Z,78.06
2019-05-18T14:16:38.876Z,78.25
2019-05-18T14:17:38.809Z,78.83
2019-05-18T14:18:38.744Z,78.58
2019-05-18T14:19:38.671Z,77.42
2019-05-18T14:20:38.602Z,79.10
2019-05-18T14:22:21.027Z,75.67
2019-05-18T14:23:20.958Z,77.44
2019-05-18T14:24:20.890Z,78.15
2019-05-18T14:25:20.819Z,72.88
2019-05-18T14:26:20.753Z,72.42
2019-05-18T14:27:20.687Z,69.78
2019-05-18T14:28:20.620Z,71.17
2019-05-18T14:29:20.551Z,68.91
2019-05-18T14:30:20.504Z,68.85
2019-05-18T14:31:20.450Z,68.75
2019-05-18T14:32:20.352Z,68.66
2019-05-18T14:33:20.285Z,67.43
2019-05-18T14:34:20.221Z,67.53
2019-05-18T14:35:20.153Z,66.40
2019-05-18T14:36:20.089Z,66.30
2019-05-18T14:37:20.021Z,64.56
2019-05-18T14:38:19.956Z,64.85
2019-05-18T14:39:23.117Z,65.63
2019-05-18T14:40:19.858Z,66.78
2019-05-18T14:41:19.762Z,65.50
2019-05-18T14:42:19.699Z,65.17
2019-05-18T14:43:19.634Z,66.11
2019-05-18T14:44:19.579Z,67.91
2019-05-18T14:45:19.510Z,68.98
2019-05-18T14:46:19.437Z,69.17
2019-05-18T14:47:19.374Z,69.36
2019-05-18T14:48:19.308Z,68.82
2019-05-18T14:49:19.242Z,70.46
2019-05-18T14:50:19.381Z,69.36
2019-05-18T14:51:19.114Z,72.39
2019-05-18T14:52:19.049Z,69.98
2019-05-18T14:53:18.995Z,71.26
2019-05-18T14:54:18.918Z,68.66
2019-05-18T14:55:32.394Z,69.04
2019-05-18T14:56:18.787Z,68.98
2019-05-18T14:57:18.722Z,71.48
2019-05-18T14:58:18.669Z,69.62
2019-05-18T14:59:18.593Z,69.81
2019-05-18T15:02:44.196Z,71.61
2019-05-18T15:03:44.130Z,71.22
2019-05-18T15:04:44.094Z,70.54
2019-05-18T15:05:44.025Z,70.94
2019-05-18T15:06:43.959Z,71.97
2019-05-18T15:07:44.072Z,70.46
2019-05-18T15:33:09.234Z,71.12
2019-05-18T15:34:09.603Z,71.22
2019-05-18T15:41:19.604Z,73.60
2019-05-18T15:42:19.555Z,74.82
2019-05-18T15:43:19.673Z,78.38
2019-05-18T15:46:06.856Z,78.58
2019-05-18T15:47:06.763Z,80.12
2019-05-18T15:48:06.694Z,80.56
2019-05-18T15:49:06.995Z,81.04
2019-05-18T15:52:06.425Z,83.26
2019-05-18T15:53:06.361Z,85.86
2019-05-18T15:59:23.193Z,85.44
2019-05-18T16:00:21.782Z,84.77
2019-05-18T16:01:21.713Z,87.85
2019-05-18T16:02:21.643Z,87.95
2019-05-18T16:03:21.574Z,88.24
2019-05-18T16:04:21.506Z,88.43
2019-05-18T16:06:18.940Z,89.35
2019-05-18T16:08:06.361Z,91.75
2019-05-18T16:09:06.292Z,93.19
2019-05-18T16:10:06.220Z,90.98
2019-05-18T16:11:06.156Z,91.94
2019-05-18T16:12:06.081Z,88.39
2019-05-18T16:14:08.559Z,90.89
2019-05-18T16:15:08.492Z,90.79
2019-05-18T16:16:08.417Z,90.89
2019-05-18T16:17:05.730Z,88.48
2019-05-18T16:18:05.654Z,88.96
2019-05-18T16:19:05.583Z,88.39
2019-05-18T16:20:05.517Z,88.87
2019-05-18T16:21:05.443Z,88.00
2019-05-18T16:22:05.373Z,89.54
2019-05-18T16:23:05.300Z,89.54
2019-05-18T16:24:05.230Z,90.21
2019-05-18T16:25:05.160Z,87.52
2019-05-18T16:26:20.386Z,88.39
2019-05-18T16:27:05.021Z,89.92
2019-05-18T16:28:04.948Z,90.69
2019-05-18T16:29:04.877Z,90.79
2019-05-18T16:30:04.811Z,91.66
2019-05-18T16:31:04.743Z,91.46
2019-05-18T16:32:04.711Z,91.46
2019-05-18T16:33:04.596Z,90.41
2019-05-18T16:34:04.527Z,88.96
2019-05-18T16:35:04.454Z,91.08
2019-05-18T16:36:04.445Z,89.44
2019-05-18T16:37:04.316Z,90.69
2019-05-18T16:38:04.243Z,90.31
2019-05-18T16:39:04.173Z,89.44
2019-05-18T16:40:04.106Z,90.89
2019-05-18T16:41:04.033Z,90.69
2019-05-18T16:42:03.962Z,90.98
2019-05-18T16:43:03.919Z,90.41
2019-05-18T16:44:03.820Z,91.36
2019-05-18T16:45:03.766Z,93.00
2019-05-18T16:46:03.678Z,92.81
2019-05-18T16:47:03.609Z,92.52
2019-05-18T16:48:03.539Z,93.19
2019-05-18T16:49:03.469Z,95.60
2019-05-18T16:50:03.409Z,94.88
2019-05-18T16:51:03.330Z,95.17
2019-05-18T16:52:03.256Z,94.30
2019-05-18T16:53:03.310Z,95.94
2019-05-18T16:54:03.251Z,95.36
2019-05-18T16:55:03.043Z,93.53
2019-05-18T16:56:02.974Z,93.24
2019-05-18T16:57:02.904Z,91.71
2019-05-18T16:58:02.839Z,90.26
2019-05-18T16:59:02.762Z,91.03
2019-05-18T17:00:02.691Z,91.42
2019-05-18T17:01:02.620Z,92.57
2019-05-18T17:02:02.547Z,90.89
2019-05-18T17:03:02.478Z,91.22
2019-05-18T17:04:02.407Z,90.45
2019-05-18T17:05:02.382Z,90.31
2019-05-18T17:06:02.267Z,91.18
2019-05-18T17:07:02.194Z,92.24
2019-05-18T17:08:02.123Z,93.29
2019-05-18T17:09:02.053Z,90.31
2019-05-18T17:10:01.984Z,90.41
2019-05-18T17:11:01.918Z,90.80
2019-05-18T17:12:01.840Z,92.52
2019-05-18T17:13:01.786Z,93.58
2019-05-18T17:14:01.797Z,93.19
2019-05-18T17:15:01.653Z,93.39
2019-05-18T17:16:01.555Z,93.44
2019-05-18T17:17:01.486Z,93.63
2019-05-18T17:18:01.412Z,95.07
2019-05-18T17:19:01.341Z,95.50
2019-05-18T17:20:01.270Z,95.21
2019-05-18T17:21:01.199Z,95.98
2019-05-18T17:22:01.128Z,95.50
2019-05-18T17:23:01.056Z,96.22
2019-05-18T17:24:00.986Z,98.53
2019-05-18T17:25:00.914Z,96.51
2019-05-18T17:26:00.842Z,97.76
2019-05-18T17:27:03.393Z,96.89
2019-05-18T17:29:03.455Z,98.10
2019-05-18T17:30:00.556Z,96.47
2019-05-18T17:31:00.480Z,96.51
2019-05-18T17:32:00.408Z,96.80
2019-05-18T17:33:00.339Z,96.03
2019-05-18T17:34:00.264Z,96.32
2019-05-18T17:36:12.752Z,97.28
2019-05-18T17:37:12.665Z,98.57
2019-05-18T17:38:12.554Z,98.19
2019-05-18T17:39:12.483Z,98.10
2019-05-18T17:40:12.410Z,97.61
2019-05-18T17:41:12.338Z,97.52
2019-05-18T17:42:12.265Z,98.96
2019-05-18T17:45:02.184Z,97.23
2019-05-18T17:48:01.970Z,99.00
2019-05-18T17:51:01.740Z,98.43
2019-05-18T17:52:01.693Z,98.71
2019-05-18T17:53:01.597Z,98.81
2019-05-18T17:54:01.523Z,99.19
2019-05-18T17:55:01.453Z,98.33
2019-05-18T17:56:01.575Z,99.38
2019-05-18T17:57:08.503Z,98.81
2019-05-18T17:58:01.255Z,99.99
2019-05-18T17:59:01.155Z,99.24